sensor_id;sensor_type;location;lat;lon;timestamp;P1;durP1;ratioP1;P2;durP2;ratioP2
13560;SDS011;6852;51.686;5.314;2023-02-24T00:01:38;12.87;;;3.70;;
13560;SDS011;6852;51.686;5.314;2023-02-24T00:04:06;13.97;;;3.07;;
13560;SDS011;6852;51.686;5.314;2023-02-24T00:06:36;11.67;;;3.17;;
13560;SDS011;6852;51.686;5.314;2023-02-24T00:09:06;13.77;;;3.33;;
13560;SDS011;6852;51.686;5.314;2023-02-24T00:11:45;12.13;;;3.43;;
13560;SDS011;6852;51.686;5.314;2023-02-24T00:14:17;10.63;;;3.20;;
13560;SDS011;6852;51.686;5.314;2023-02-24T00:16:44;10.30;;;3.13;;
13560;SDS011;6852;51.686;5.314;2023-02-24T00:19:15;12.93;;;4.27;;
13560;SDS011;6852;51.686;5.314;2023-02-24T00:21:44;10.83;;;3.47;;
13560;SDS011;6852;51.686;5.314;2023-02-24T00:24:11;12.80;;;3.33;;
13560;SDS011;6852;51.686;5.314;2023-02-24T00:26:38;13.57;;;3.43;;
13560;SDS011;6852;51.686;5.314;2023-02-24T00:29:07;8.40;;;3.90;;
13560;SDS011;6852;51.686;5.314;2023-02-24T00:31:36;8.50;;;3.07;;
13560;SDS011;6852;51.686;5.314;2023-02-24T00:34:12;9.80;;;3.30;;
13560;SDS011;6852;51.686;5.314;2023-02-24T00:36:40;10.10;;;3.00;;
13560;SDS011;6852;51.686;5.314;2023-02-24T00:39:07;10.40;;;2.83;;
13560;SDS011;6852;51.686;5.314;2023-02-24T00:41:36;12.53;;;3.03;;
13560;SDS011;6852;51.686;5.314;2023-02-24T00:44:06;11.83;;;3.00;;
13560;SDS011;6852;51.686;5.314;2023-02-24T00:49:04;10.97;;;2.53;;
13560;SDS011;6852;51.686;5.314;2023-02-24T00:51:36;8.33;;;2.90;;
13560;SDS011;6852;51.686;5.314;2023-02-24T00:54:06;8.23;;;3.00;;
13560;SDS011;6852;51.686;5.314;2023-02-24T00:56:35;8.97;;;2.70;;
13560;SDS011;6852;51.686;5.314;2023-02-24T00:59:02;14.73;;;3.20;;
13560;SDS011;6852;51.686;5.314;2023-02-24T01:01:30;7.63;;;2.63;;
13560;SDS011;6852;51.686;5.314;2023-02-24T01:03:59;12.23;;;2.90;;
13560;SDS011;6852;51.686;5.314;2023-02-24T01:06:31;16.27;;;2.73;;
13560;SDS011;6852;51.686;5.314;2023-02-24T01:08:59;9.77;;;2.93;;
13560;SDS011;6852;51.686;5.314;2023-02-24T01:11:27;10.63;;;2.73;;
13560;SDS011;6852;51.686;5.314;2023-02-24T01:14:18;8.97;;;2.47;;
13560;SDS011;6852;51.686;5.314;2023-02-24T01:16:46;15.03;;;2.80;;
13560;SDS011;6852;51.686;5.314;2023-02-24T01:19:17;8.73;;;2.23;;
13560;SDS011;6852;51.686;5.314;2023-02-24T01:21:45;8.73;;;2.40;;
13560;SDS011;6852;51.686;5.314;2023-02-24T01:24:13;16.63;;;2.67;;
13560;SDS011;6852;51.686;5.314;2023-02-24T01:26:43;8.00;;;2.60;;
13560;SDS011;6852;51.686;5.314;2023-02-24T01:29:09;11.60;;;2.57;;
13560;SDS011;6852;51.686;5.314;2023-02-24T01:31:36;5.57;;;2.87;;
13560;SDS011;6852;51.686;5.314;2023-02-24T01:34:05;11.33;;;3.03;;
13560;SDS011;6852;51.686;5.314;2023-02-24T01:36:32;10.30;;;3.17;;
13560;SDS011;6852;51.686;5.314;2023-02-24T01:38:59;8.37;;;2.53;;
13560;SDS011;6852;51.686;5.314;2023-02-24T01:41:26;8.50;;;2.80;;
13560;SDS011;6852;51.686;5.314;2023-02-24T01:43:57;11.03;;;2.80;;
13560;SDS011;6852;51.686;5.314;2023-02-24T01:46:39;15.70;;;3.50;;
13560;SDS011;6852;51.686;5.314;2023-02-24T01:51:55;11.17;;;2.70;;
13560;SDS011;6852;51.686;5.314;2023-02-24T01:54:29;9.00;;;2.70;;
13560;SDS011;6852;51.686;5.314;2023-02-24T01:57:18;8.27;;;2.87;;
13560;SDS011;6852;51.686;5.314;2023-02-24T01:59:49;9.43;;;3.03;;
13560;SDS011;6852;51.686;5.314;2023-02-24T02:02:19;13.10;;;2.57;;
13560;SDS011;6852;51.686;5.314;2023-02-24T02:04:55;8.00;;;2.33;;
13560;SDS011;6852;51.686;5.314;2023-02-24T02:07:26;14.40;;;3.13;;
13560;SDS011;6852;51.686;5.314;2023-02-24T02:09:54;12.13;;;3.07;;
13560;SDS011;6852;51.686;5.314;2023-02-24T02:12:29;7.23;;;2.57;;
13560;SDS011;6852;51.686;5.314;2023-02-24T02:15:02;9.97;;;2.93;;
13560;SDS011;6852;51.686;5.314;2023-02-24T02:17:32;7.37;;;2.37;;
13560;SDS011;6852;51.686;5.314;2023-02-24T02:29:10;10.53;;;2.90;;
13560;SDS011;6852;51.686;5.314;2023-02-24T02:34:40;10.97;;;2.80;;
13560;SDS011;6852;51.686;5.314;2023-02-24T02:42:53;11.27;;;3.30;;
13560;SDS011;6852;51.686;5.314;2023-02-24T02:46:10;8.67;;;2.93;;
13560;SDS011;6852;51.686;5.314;2023-02-24T02:48:25;12.60;;;2.77;;
13560;SDS011;6852;51.686;5.314;2023-02-24T02:51:02;9.50;;;3.23;;
13560;SDS011;6852;51.686;5.314;2023-02-24T02:53:35;11.27;;;2.70;;
13560;SDS011;6852;51.686;5.314;2023-02-24T02:56:16;10.20;;;2.80;;
13560;SDS011;6852;51.686;5.314;2023-02-24T02:58:47;9.77;;;2.87;;
13560;SDS011;6852;51.686;5.314;2023-02-24T03:01:19;8.33;;;2.30;;
13560;SDS011;6852;51.686;5.314;2023-02-24T03:03:50;10.20;;;2.43;;
13560;SDS011;6852;51.686;5.314;2023-02-24T03:06:28;13.63;;;2.53;;
13560;SDS011;6852;51.686;5.314;2023-02-24T03:09:03;8.43;;;2.53;;
13560;SDS011;6852;51.686;5.314;2023-02-24T03:11:39;9.53;;;2.60;;
13560;SDS011;6852;51.686;5.314;2023-02-24T03:14:08;9.13;;;3.03;;
13560;SDS011;6852;51.686;5.314;2023-02-24T03:16:38;5.73;;;2.23;;
13560;SDS011;6852;51.686;5.314;2023-02-24T03:19:09;6.27;;;2.43;;
13560;SDS011;6852;51.686;5.314;2023-02-24T03:21:42;8.00;;;2.53;;
13560;SDS011;6852;51.686;5.314;2023-02-24T03:24:11;6.50;;;2.70;;
13560;SDS011;6852;51.686;5.314;2023-02-24T03:26:42;8.13;;;2.57;;
13560;SDS011;6852;51.686;5.314;2023-02-24T03:29:23;7.00;;;2.43;;
13560;SDS011;6852;51.686;5.314;2023-02-24T03:31:59;7.03;;;2.50;;
13560;SDS011;6852;51.686;5.314;2023-02-24T03:34:53;8.67;;;2.60;;
13560;SDS011;6852;51.686;5.314;2023-02-24T03:37:36;9.70;;;3.27;;
13560;SDS011;6852;51.686;5.314;2023-02-24T03:40:04;7.80;;;2.23;;
13560;SDS011;6852;51.686;5.314;2023-02-24T03:42:37;14.00;;;2.97;;
13560;SDS011;6852;51.686;5.314;2023-02-24T03:45:07;8.87;;;2.50;;
13560;SDS011;6852;51.686;5.314;2023-02-24T03:47:35;11.37;;;2.77;;
13560;SDS011;6852;51.686;5.314;2023-02-24T03:50:05;6.67;;;2.80;;
13560;SDS011;6852;51.686;5.314;2023-02-24T03:52:42;10.83;;;3.17;;
13560;SDS011;6852;51.686;5.314;2023-02-24T04:15:04;7.80;;;2.00;;
13560;SDS011;6852;51.686;5.314;2023-02-24T04:17:42;11.67;;;2.40;;
13560;SDS011;6852;51.686;5.314;2023-02-24T04:20:14;6.03;;;3.03;;
13560;SDS011;6852;51.686;5.314;2023-02-24T04:22:49;5.17;;;1.87;;
13560;SDS011;6852;51.686;5.314;2023-02-24T04:25:20;8.17;;;2.53;;
13560;SDS011;6852;51.686;5.314;2023-02-24T04:27:51;7.53;;;2.30;;
13560;SDS011;6852;51.686;5.314;2023-02-24T04:30:20;7.73;;;1.83;;
13560;SDS011;6852;51.686;5.314;2023-02-24T04:32:49;7.20;;;2.23;;
13560;SDS011;6852;51.686;5.314;2023-02-24T04:35:19;8.00;;;1.70;;
13560;SDS011;6852;51.686;5.314;2023-02-24T04:37:47;6.07;;;1.60;;
13560;SDS011;6852;51.686;5.314;2023-02-24T04:40:16;5.67;;;1.53;;
13560;SDS011;6852;51.686;5.314;2023-02-24T04:42:51;7.80;;;2.43;;
13560;SDS011;6852;51.686;5.314;2023-02-24T04:45:20;9.03;;;2.27;;
13560;SDS011;6852;51.686;5.314;2023-02-24T04:47:49;8.87;;;2.07;;
13560;SDS011;6852;51.686;5.314;2023-02-24T04:50:22;9.07;;;2.40;;
13560;SDS011;6852;51.686;5.314;2023-02-24T04:55:20;12.20;;;2.60;;
13560;SDS011;6852;51.686;5.314;2023-02-24T04:57:52;8.83;;;2.30;;
13560;SDS011;6852;51.686;5.314;2023-02-24T05:00:19;6.53;;;2.10;;
13560;SDS011;6852;51.686;5.314;2023-02-24T05:02:52;6.57;;;2.00;;
13560;SDS011;6852;51.686;5.314;2023-02-24T05:05:22;7.00;;;2.17;;
13560;SDS011;6852;51.686;5.314;2023-02-24T05:07:54;8.70;;;2.63;;
13560;SDS011;6852;51.686;5.314;2023-02-24T05:10:22;10.90;;;2.40;;
13560;SDS011;6852;51.686;5.314;2023-02-24T05:12:53;4.60;;;2.07;;
13560;SDS011;6852;51.686;5.314;2023-02-24T05:15:27;10.10;;;2.70;;
13560;SDS011;6852;51.686;5.314;2023-02-24T05:18:01;9.10;;;2.50;;
13560;SDS011;6852;51.686;5.314;2023-02-24T05:20:36;7.33;;;3.00;;
13560;SDS011;6852;51.686;5.314;2023-02-24T05:23:28;11.20;;;3.00;;
13560;SDS011;6852;51.686;5.314;2023-02-24T05:25:57;13.47;;;3.10;;
13560;SDS011;6852;51.686;5.314;2023-02-24T05:28:25;11.23;;;3.07;;
13560;SDS011;6852;51.686;5.314;2023-02-24T05:31:03;10.03;;;3.67;;
13560;SDS011;6852;51.686;5.314;2023-02-24T05:33:36;4.73;;;2.60;;
13560;SDS011;6852;51.686;5.314;2023-02-24T05:36:04;7.87;;;2.30;;
13560;SDS011;6852;51.686;5.314;2023-02-24T05:38:34;10.10;;;2.80;;
13560;SDS011;6852;51.686;5.314;2023-02-24T05:41:10;12.27;;;2.37;;
13560;SDS011;6852;51.686;5.314;2023-02-24T05:43:46;11.50;;;3.33;;
13560;SDS011;6852;51.686;5.314;2023-02-24T05:46:19;5.43;;;2.50;;
13560;SDS011;6852;51.686;5.314;2023-02-24T05:48:51;10.10;;;2.30;;
13560;SDS011;6852;51.686;5.314;2023-02-24T05:51:25;7.70;;;2.27;;
13560;SDS011;6852;51.686;5.314;2023-02-24T05:53:53;11.13;;;2.37;;
13560;SDS011;6852;51.686;5.314;2023-02-24T05:56:23;5.30;;;2.13;;
13560;SDS011;6852;51.686;5.314;2023-02-24T05:58:50;6.57;;;2.37;;
13560;SDS011;6852;51.686;5.314;2023-02-24T06:01:31;8.73;;;2.00;;
13560;SDS011;6852;51.686;5.314;2023-02-24T06:04:00;11.33;;;2.30;;
13560;SDS011;6852;51.686;5.314;2023-02-24T06:06:40;7.33;;;2.57;;
13560;SDS011;6852;51.686;5.314;2023-02-24T06:09:09;12.57;;;3.20;;
13560;SDS011;6852;51.686;5.314;2023-02-24T06:11:41;6.57;;;2.33;;
13560;SDS011;6852;51.686;5.314;2023-02-24T06:14:10;6.77;;;1.53;;
13560;SDS011;6852;51.686;5.314;2023-02-24T06:16:39;8.87;;;2.43;;
13560;SDS011;6852;51.686;5.314;2023-02-24T06:19:07;8.57;;;2.07;;
13560;SDS011;6852;51.686;5.314;2023-02-24T06:21:36;8.80;;;1.90;;
13560;SDS011;6852;51.686;5.314;2023-02-24T06:24:10;9.20;;;2.07;;
13560;SDS011;6852;51.686;5.314;2023-02-24T06:26:41;11.67;;;2.20;;
13560;SDS011;6852;51.686;5.314;2023-02-24T06:29:15;7.90;;;2.00;;
13560;SDS011;6852;51.686;5.314;2023-02-24T06:31:42;11.80;;;2.37;;
13560;SDS011;6852;51.686;5.314;2023-02-24T06:34:10;7.87;;;2.07;;
13560;SDS011;6852;51.686;5.314;2023-02-24T06:36:43;8.80;;;2.17;;
13560;SDS011;6852;51.686;5.314;2023-02-24T06:39:12;7.63;;;1.87;;
13560;SDS011;6852;51.686;5.314;2023-02-24T06:41:39;4.40;;;1.87;;
13560;SDS011;6852;51.686;5.314;2023-02-24T06:44:07;5.83;;;1.47;;
13560;SDS011;6852;51.686;5.314;2023-02-24T06:46:35;8.57;;;2.00;;
13560;SDS011;6852;51.686;5.314;2023-02-24T06:49:02;4.30;;;2.03;;
13560;SDS011;6852;51.686;5.314;2023-02-24T06:51:29;7.87;;;2.10;;
13560;SDS011;6852;51.686;5.314;2023-02-24T06:53:56;11.67;;;1.90;;
13560;SDS011;6852;51.686;5.314;2023-02-24T06:56:25;9.37;;;2.00;;
13560;SDS011;6852;51.686;5.314;2023-02-24T06:58:53;9.77;;;1.97;;
13560;SDS011;6852;51.686;5.314;2023-02-24T07:01:22;6.03;;;1.93;;
13560;SDS011;6852;51.686;5.314;2023-02-24T07:03:51;6.97;;;1.73;;
13560;SDS011;6852;51.686;5.314;2023-02-24T07:06:46;9.80;;;1.57;;
13560;SDS011;6852;51.686;5.314;2023-02-24T07:09:19;11.13;;;2.33;;
13560;SDS011;6852;51.686;5.314;2023-02-24T07:11:48;8.53;;;2.00;;
13560;SDS011;6852;51.686;5.314;2023-02-24T07:14:19;8.43;;;1.60;;
13560;SDS011;6852;51.686;5.314;2023-02-24T07:16:47;8.17;;;1.90;;
13560;SDS011;6852;51.686;5.314;2023-02-24T07:19:23;5.50;;;1.73;;
13560;SDS011;6852;51.686;5.314;2023-02-24T07:21:55;7.50;;;2.23;;
13560;SDS011;6852;51.686;5.314;2023-02-24T07:24:28;5.30;;;1.57;;
13560;SDS011;6852;51.686;5.314;2023-02-24T07:27:09;9.33;;;2.10;;
13560;SDS011;6852;51.686;5.314;2023-02-24T07:29:48;4.10;;;1.47;;
13560;SDS011;6852;51.686;5.314;2023-02-24T07:32:19;4.57;;;1.67;;
13560;SDS011;6852;51.686;5.314;2023-02-24T07:34:50;9.93;;;1.60;;
13560;SDS011;6852;51.686;5.314;2023-02-24T07:37:18;7.17;;;1.67;;
13560;SDS011;6852;51.686;5.314;2023-02-24T07:39:45;6.37;;;1.50;;
13560;SDS011;6852;51.686;5.314;2023-02-24T07:42:12;7.77;;;1.50;;
13560;SDS011;6852;51.686;5.314;2023-02-24T07:44:39;5.07;;;1.37;;
13560;SDS011;6852;51.686;5.314;2023-02-24T07:47:09;7.03;;;1.67;;
13560;SDS011;6852;51.686;5.314;2023-02-24T07:49:36;5.90;;;1.37;;
13560;SDS011;6852;51.686;5.314;2023-02-24T07:52:04;7.90;;;1.40;;
13560;SDS011;6852;51.686;5.314;2023-02-24T07:54:33;7.37;;;1.33;;
13560;SDS011;6852;51.686;5.314;2023-02-24T07:57:00;8.10;;;1.27;;
13560;SDS011;6852;51.686;5.314;2023-02-24T07:59:28;6.20;;;1.40;;
13560;SDS011;6852;51.686;5.314;2023-02-24T08:01:57;3.33;;;1.00;;
13560;SDS011;6852;51.686;5.314;2023-02-24T08:04:30;8.53;;;1.33;;
13560;SDS011;6852;51.686;5.314;2023-02-24T08:07:04;6.10;;;1.17;;
13560;SDS011;6852;51.686;5.314;2023-02-24T08:09:39;5.07;;;1.70;;
13560;SDS011;6852;51.686;5.314;2023-02-24T08:12:32;6.93;;;1.57;;
13560;SDS011;6852;51.686;5.314;2023-02-24T08:15:00;8.10;;;1.70;;
13560;SDS011;6852;51.686;5.314;2023-02-24T08:17:42;6.23;;;2.47;;
13560;SDS011;6852;51.686;5.314;2023-02-24T08:20:12;5.87;;;1.30;;
13560;SDS011;6852;51.686;5.314;2023-02-24T08:22:42;4.50;;;1.20;;
13560;SDS011;6852;51.686;5.314;2023-02-24T08:25:18;4.40;;;1.20;;
13560;SDS011;6852;51.686;5.314;2023-02-24T08:27:51;5.37;;;1.20;;
13560;SDS011;6852;51.686;5.314;2023-02-24T08:30:39;10.13;;;1.60;;
13560;SDS011;6852;51.686;5.314;2023-02-24T08:33:20;9.50;;;1.53;;
13560;SDS011;6852;51.686;5.314;2023-02-24T08:35:52;7.77;;;1.30;;
13560;SDS011;6852;51.686;5.314;2023-02-24T08:38:27;4.47;;;1.10;;
13560;SDS011;6852;51.686;5.314;2023-02-24T08:41:06;8.47;;;1.30;;
13560;SDS011;6852;51.686;5.314;2023-02-24T08:43:38;7.53;;;1.53;;
13560;SDS011;6852;51.686;5.314;2023-02-24T08:46:16;5.83;;;1.50;;
13560;SDS011;6852;51.686;5.314;2023-02-24T08:48:47;9.77;;;1.73;;
13560;SDS011;6852;51.686;5.314;2023-02-24T08:51:30;6.50;;;1.40;;
13560;SDS011;6852;51.686;5.314;2023-02-24T08:54:03;3.70;;;1.30;;
13560;SDS011;6852;51.686;5.314;2023-02-24T08:56:44;5.93;;;1.40;;
13560;SDS011;6852;51.686;5.314;2023-02-24T08:59:22;7.30;;;1.23;;
13560;SDS011;6852;51.686;5.314;2023-02-24T09:02:18;3.03;;;1.00;;
13560;SDS011;6852;51.686;5.314;2023-02-24T09:04:50;9.93;;;2.30;;
13560;SDS011;6852;51.686;5.314;2023-02-24T09:09:54;6.87;;;1.60;;
13560;SDS011;6852;51.686;5.314;2023-02-24T09:12:24;9.60;;;1.43;;
13560;SDS011;6852;51.686;5.314;2023-02-24T09:14:58;5.33;;;1.30;;
13560;SDS011;6852;51.686;5.314;2023-02-24T09:17:30;6.90;;;1.30;;
13560;SDS011;6852;51.686;5.314;2023-02-24T09:20:16;5.63;;;1.30;;
13560;SDS011;6852;51.686;5.314;2023-02-24T09:23:03;6.30;;;1.60;;
13560;SDS011;6852;51.686;5.314;2023-02-24T09:25:35;7.23;;;1.43;;
13560;SDS011;6852;51.686;5.314;2023-02-24T09:30:52;10.50;;;1.63;;
13560;SDS011;6852;51.686;5.314;2023-02-24T09:33:37;7.17;;;2.37;;
13560;SDS011;6852;51.686;5.314;2023-02-24T09:36:05;10.90;;;1.83;;
13560;SDS011;6852;51.686;5.314;2023-02-24T09:38:46;9.00;;;1.60;;
13560;SDS011;6852;51.686;5.314;2023-02-24T09:53:15;9.90;;;1.43;;
13560;SDS011;6852;51.686;5.314;2023-02-24T09:55:50;9.97;;;1.80;;
13560;SDS011;6852;51.686;5.314;2023-02-24T09:58:39;7.93;;;1.30;;
13560;SDS011;6852;51.686;5.314;2023-02-24T10:06:47;5.80;;;1.93;;
13560;SDS011;6852;51.686;5.314;2023-02-24T10:11:53;7.17;;;1.83;;
13560;SDS011;6852;51.686;5.314;2023-02-24T10:14:33;8.37;;;1.90;;
13560;SDS011;6852;51.686;5.314;2023-02-24T10:19:55;8.60;;;2.00;;
13560;SDS011;6852;51.686;5.314;2023-02-24T10:22:31;4.47;;;1.93;;
13560;SDS011;6852;51.686;5.314;2023-02-24T10:25:21;6.13;;;2.00;;
13560;SDS011;6852;51.686;5.314;2023-02-24T10:33:41;6.83;;;2.10;;
13560;SDS011;6852;51.686;5.314;2023-02-24T10:36:12;10.00;;;2.00;;
13560;SDS011;6852;51.686;5.314;2023-02-24T10:38:44;3.80;;;1.93;;
13560;SDS011;6852;51.686;5.314;2023-02-24T10:41:12;7.40;;;2.30;;
13560;SDS011;6852;51.686;5.314;2023-02-24T10:43:39;9.03;;;1.93;;
13560;SDS011;6852;51.686;5.314;2023-02-24T10:46:29;9.80;;;2.17;;
13560;SDS011;6852;51.686;5.314;2023-02-24T10:49:07;8.40;;;2.27;;
13560;SDS011;6852;51.686;5.314;2023-02-24T10:51:42;10.07;;;2.50;;
13560;SDS011;6852;51.686;5.314;2023-02-24T10:54:24;5.43;;;1.83;;
13560;SDS011;6852;51.686;5.314;2023-02-24T10:57:06;9.17;;;2.50;;
13560;SDS011;6852;51.686;5.314;2023-02-24T11:00:05;9.53;;;2.73;;
13560;SDS011;6852;51.686;5.314;2023-02-24T11:02:48;6.37;;;2.10;;
13560;SDS011;6852;51.686;5.314;2023-02-24T11:05:40;8.40;;;2.53;;
13560;SDS011;6852;51.686;5.314;2023-02-24T11:08:21;7.30;;;2.40;;
13560;SDS011;6852;51.686;5.314;2023-02-24T11:11:15;6.37;;;2.30;;
13560;SDS011;6852;51.686;5.314;2023-02-24T11:13:57;6.23;;;2.50;;
13560;SDS011;6852;51.686;5.314;2023-02-24T11:16:52;9.73;;;2.67;;
13560;SDS011;6852;51.686;5.314;2023-02-24T11:19:43;10.47;;;2.83;;
13560;SDS011;6852;51.686;5.314;2023-02-24T11:22:16;4.60;;;2.43;;
13560;SDS011;6852;51.686;5.314;2023-02-24T11:24:47;7.87;;;2.90;;
13560;SDS011;6852;51.686;5.314;2023-02-24T11:27:16;9.20;;;3.07;;
13560;SDS011;6852;51.686;5.314;2023-02-24T11:30:02;5.50;;;2.80;;
13560;SDS011;6852;51.686;5.314;2023-02-24T11:41:18;9.97;;;2.63;;
13560;SDS011;6852;51.686;5.314;2023-02-24T11:43:56;7.80;;;2.73;;
13560;SDS011;6852;51.686;5.314;2023-02-24T11:46:50;8.90;;;3.63;;
13560;SDS011;6852;51.686;5.314;2023-02-24T11:49:42;5.83;;;2.93;;
13560;SDS011;6852;51.686;5.314;2023-02-24T11:52:12;14.43;;;4.13;;
13560;SDS011;6852;51.686;5.314;2023-02-24T11:54:45;6.83;;;3.00;;
13560;SDS011;6852;51.686;5.314;2023-02-24T11:57:17;6.03;;;2.67;;
13560;SDS011;6852;51.686;5.314;2023-02-24T11:59:50;8.03;;;3.03;;
13560;SDS011;6852;51.686;5.314;2023-02-24T12:02:32;7.00;;;2.63;;
13560;SDS011;6852;51.686;5.314;2023-02-24T12:05:13;8.60;;;2.70;;
13560;SDS011;6852;51.686;5.314;2023-02-24T12:08:17;9.33;;;2.33;;
13560;SDS011;6852;51.686;5.314;2023-02-24T12:11:02;6.37;;;2.63;;
13560;SDS011;6852;51.686;5.314;2023-02-24T12:16:27;6.80;;;2.73;;
13560;SDS011;6852;51.686;5.314;2023-02-24T12:21:55;6.10;;;2.20;;
13560;SDS011;6852;51.686;5.314;2023-02-24T12:24:28;9.03;;;2.63;;
13560;SDS011;6852;51.686;5.314;2023-02-24T12:35:14;9.27;;;2.33;;
13560;SDS011;6852;51.686;5.314;2023-02-24T12:40:28;4.90;;;2.40;;
13560;SDS011;6852;51.686;5.314;2023-02-24T12:46:25;6.47;;;2.30;;
13560;SDS011;6852;51.686;5.314;2023-02-24T12:54:59;5.03;;;2.20;;
13560;SDS011;6852;51.686;5.314;2023-02-24T12:57:01;3.87;;;2.30;;
13560;SDS011;6852;51.686;5.314;2023-02-24T12:59:37;3.83;;;2.30;;
13560;SDS011;6852;51.686;5.314;2023-02-24T13:02:13;6.30;;;2.20;;
13560;SDS011;6852;51.686;5.314;2023-02-24T13:05:08;3.57;;;1.97;;
13560;SDS011;6852;51.686;5.314;2023-02-24T13:07:51;6.13;;;2.53;;
13560;SDS011;6852;51.686;5.314;2023-02-24T13:15:51;5.03;;;2.07;;
13560;SDS011;6852;51.686;5.314;2023-02-24T13:18:24;2.17;;;1.97;;
13560;SDS011;6852;51.686;5.314;2023-02-24T13:21:06;6.73;;;2.20;;
13560;SDS011;6852;51.686;5.314;2023-02-24T13:23:39;4.30;;;2.47;;
13560;SDS011;6852;51.686;5.314;2023-02-24T13:26:07;2.80;;;1.80;;
13560;SDS011;6852;51.686;5.314;2023-02-24T13:28:35;2.63;;;1.77;;
13560;SDS011;6852;51.686;5.314;2023-02-24T13:31:05;5.33;;;2.57;;
13560;SDS011;6852;51.686;5.314;2023-02-24T13:33:40;3.10;;;2.20;;
13560;SDS011;6852;51.686;5.314;2023-02-24T13:36:16;4.90;;;2.47;;
13560;SDS011;6852;51.686;5.314;2023-02-24T13:39:03;8.30;;;2.93;;
13560;SDS011;6852;51.686;5.314;2023-02-24T13:41:38;7.20;;;3.40;;
13560;SDS011;6852;51.686;5.314;2023-02-24T13:47:11;7.40;;;4.47;;
13560;SDS011;6852;51.686;5.314;2023-02-24T13:58:41;9.40;;;5.20;;
13560;SDS011;6852;51.686;5.314;2023-02-24T14:01:27;10.30;;;5.30;;
13560;SDS011;6852;51.686;5.314;2023-02-24T14:06:44;9.20;;;6.20;;
13560;SDS011;6852;51.686;5.314;2023-02-24T14:09:17;11.87;;;6.63;;
13560;SDS011;6852;51.686;5.314;2023-02-24T14:11:59;11.60;;;6.57;;
13560;SDS011;6852;51.686;5.314;2023-02-24T14:14:29;17.93;;;6.93;;
13560;SDS011;6852;51.686;5.314;2023-02-24T14:16:56;15.03;;;6.43;;
13560;SDS011;6852;51.686;5.314;2023-02-24T14:19:23;10.70;;;6.97;;
13560;SDS011;6852;51.686;5.314;2023-02-24T14:21:53;12.53;;;6.30;;
13560;SDS011;6852;51.686;5.314;2023-02-24T14:24:22;10.57;;;6.73;;
13560;SDS011;6852;51.686;5.314;2023-02-24T14:26:50;13.13;;;6.27;;
13560;SDS011;6852;51.686;5.314;2023-02-24T14:29:22;12.03;;;6.10;;
13560;SDS011;6852;51.686;5.314;2023-02-24T14:31:52;11.10;;;6.17;;
13560;SDS011;6852;51.686;5.314;2023-02-24T14:34:22;13.57;;;6.10;;
13560;SDS011;6852;51.686;5.314;2023-02-24T14:36:53;10.97;;;5.10;;
13560;SDS011;6852;51.686;5.314;2023-02-24T14:39:23;13.40;;;6.70;;
13560;SDS011;6852;51.686;5.314;2023-02-24T14:42:03;12.93;;;4.87;;
13560;SDS011;6852;51.686;5.314;2023-02-24T14:44:30;18.13;;;5.07;;
13560;SDS011;6852;51.686;5.314;2023-02-24T14:46:58;17.37;;;4.00;;
13560;SDS011;6852;51.686;5.314;2023-02-24T14:49:32;8.20;;;2.87;;
13560;SDS011;6852;51.686;5.314;2023-02-24T14:57:34;5.03;;;1.17;;
13560;SDS011;6852;51.686;5.314;2023-02-24T15:00:11;7.87;;;1.60;;
13560;SDS011;6852;51.686;5.314;2023-02-24T15:03:02;11.57;;;1.77;;
13560;SDS011;6852;51.686;5.314;2023-02-24T15:05:38;7.83;;;1.60;;
13560;SDS011;6852;51.686;5.314;2023-02-24T15:10:59;6.90;;;1.80;;
13560;SDS011;6852;51.686;5.314;2023-02-24T15:13:37;9.53;;;2.47;;
13560;SDS011;6852;51.686;5.314;2023-02-24T15:16:17;6.93;;;1.80;;
13560;SDS011;6852;51.686;5.314;2023-02-24T15:18:58;11.20;;;2.07;;
13560;SDS011;6852;51.686;5.314;2023-02-24T15:21:28;9.70;;;1.57;;
13560;SDS011;6852;51.686;5.314;2023-02-24T15:26:52;10.03;;;1.87;;
13560;SDS011;6852;51.686;5.314;2023-02-24T15:29:25;10.73;;;1.90;;
13560;SDS011;6852;51.686;5.314;2023-02-24T15:31:54;13.93;;;2.27;;
13560;SDS011;6852;51.686;5.314;2023-02-24T15:34:33;10.10;;;1.57;;
13560;SDS011;6852;51.686;5.314;2023-02-24T15:37:02;10.90;;;1.73;;
13560;SDS011;6852;51.686;5.314;2023-02-24T15:39:42;6.47;;;2.20;;
13560;SDS011;6852;51.686;5.314;2023-02-24T15:42:26;12.27;;;2.80;;
13560;SDS011;6852;51.686;5.314;2023-02-24T15:45:03;8.43;;;2.10;;
13560;SDS011;6852;51.686;5.314;2023-02-24T15:47:42;8.17;;;2.33;;
13560;SDS011;6852;51.686;5.314;2023-02-24T15:50:11;9.97;;;2.20;;
13560;SDS011;6852;51.686;5.314;2023-02-24T15:52:38;7.70;;;1.77;;
13560;SDS011;6852;51.686;5.314;2023-02-24T15:55:09;4.73;;;1.63;;
13560;SDS011;6852;51.686;5.314;2023-02-24T15:57:36;5.73;;;1.37;;
13560;SDS011;6852;51.686;5.314;2023-02-24T16:00:04;10.00;;;1.70;;
13560;SDS011;6852;51.686;5.314;2023-02-24T16:02:38;13.13;;;1.97;;
13560;SDS011;6852;51.686;5.314;2023-02-24T16:05:08;11.27;;;2.70;;
13560;SDS011;6852;51.686;5.314;2023-02-24T16:07:38;10.73;;;1.67;;
13560;SDS011;6852;51.686;5.314;2023-02-24T16:10:05;12.27;;;2.20;;
13560;SDS011;6852;51.686;5.314;2023-02-24T16:12:35;7.77;;;1.57;;
13560;SDS011;6852;51.686;5.314;2023-02-24T16:15:13;8.30;;;1.77;;
13560;SDS011;6852;51.686;5.314;2023-02-24T16:17:49;13.40;;;2.20;;
13560;SDS011;6852;51.686;5.314;2023-02-24T16:20:21;8.33;;;1.57;;
13560;SDS011;6852;51.686;5.314;2023-02-24T16:22:53;9.33;;;1.80;;
13560;SDS011;6852;51.686;5.314;2023-02-24T16:25:21;8.80;;;1.60;;
13560;SDS011;6852;51.686;5.314;2023-02-24T16:27:48;6.57;;;1.43;;
13560;SDS011;6852;51.686;5.314;2023-02-24T16:30:16;4.87;;;1.47;;
13560;SDS011;6852;51.686;5.314;2023-02-24T16:32:47;7.07;;;1.27;;
13560;SDS011;6852;51.686;5.314;2023-02-24T16:35:14;5.13;;;1.70;;
13560;SDS011;6852;51.686;5.314;2023-02-24T16:37:41;4.83;;;1.30;;
13560;SDS011;6852;51.686;5.314;2023-02-24T16:40:19;3.13;;;1.90;;
13560;SDS011;6852;51.686;5.314;2023-02-24T16:42:50;2.10;;;0.87;;
13560;SDS011;6852;51.686;5.314;2023-02-24T16:45:18;5.47;;;1.20;;
13560;SDS011;6852;51.686;5.314;2023-02-24T16:47:46;9.27;;;1.37;;
13560;SDS011;6852;51.686;5.314;2023-02-24T16:50:22;6.40;;;1.57;;
13560;SDS011;6852;51.686;5.314;2023-02-24T16:53:00;5.77;;;1.07;;
13560;SDS011;6852;51.686;5.314;2023-02-24T16:55:27;8.57;;;1.37;;
13560;SDS011;6852;51.686;5.314;2023-02-24T16:57:54;5.90;;;1.67;;
13560;SDS011;6852;51.686;5.314;2023-02-24T17:00:21;6.77;;;1.67;;
13560;SDS011;6852;51.686;5.314;2023-02-24T17:02:49;6.73;;;1.13;;
13560;SDS011;6852;51.686;5.314;2023-02-24T17:05:19;5.87;;;1.20;;
13560;SDS011;6852;51.686;5.314;2023-02-24T17:07:48;4.83;;;1.27;;
13560;SDS011;6852;51.686;5.314;2023-02-24T17:10:17;5.50;;;1.30;;
13560;SDS011;6852;51.686;5.314;2023-02-24T17:12:44;3.47;;;1.27;;
13560;SDS011;6852;51.686;5.314;2023-02-24T17:15:15;8.30;;;1.63;;
13560;SDS011;6852;51.686;5.314;2023-02-24T17:17:44;3.87;;;1.20;;
13560;SDS011;6852;51.686;5.314;2023-02-24T17:20:13;4.63;;;1.07;;
13560;SDS011;6852;51.686;5.314;2023-02-24T17:22:41;7.67;;;1.90;;
13560;SDS011;6852;51.686;5.314;2023-02-24T17:25:27;4.90;;;1.37;;
13560;SDS011;6852;51.686;5.314;2023-02-24T17:27:55;4.20;;;1.47;;
13560;SDS011;6852;51.686;5.314;2023-02-24T17:30:28;6.50;;;1.77;;
13560;SDS011;6852;51.686;5.314;2023-02-24T17:33:00;7.70;;;1.97;;
13560;SDS011;6852;51.686;5.314;2023-02-24T17:35:27;4.97;;;1.37;;
13560;SDS011;6852;51.686;5.314;2023-02-24T17:37:54;8.20;;;1.17;;
13560;SDS011;6852;51.686;5.314;2023-02-24T17:40:21;4.27;;;1.10;;
13560;SDS011;6852;51.686;5.314;2023-02-24T17:42:48;6.63;;;1.17;;
13560;SDS011;6852;51.686;5.314;2023-02-24T17:45:15;7.40;;;1.73;;
13560;SDS011;6852;51.686;5.314;2023-02-24T17:47:42;3.30;;;1.20;;
13560;SDS011;6852;51.686;5.314;2023-02-24T17:50:09;6.70;;;1.40;;
13560;SDS011;6852;51.686;5.314;2023-02-24T17:52:37;5.00;;;1.23;;
13560;SDS011;6852;51.686;5.314;2023-02-24T17:55:04;4.57;;;1.50;;
13560;SDS011;6852;51.686;5.314;2023-02-24T17:57:33;8.17;;;1.50;;
13560;SDS011;6852;51.686;5.314;2023-02-24T18:00:00;7.30;;;1.70;;